sensor_id;sensor_type;location;lat;lon;timestamp;P1;durP1;ratioP1;P2;durP2;ratioP2
44728;SDS011;30457;53.590;9.922;2022-09-09T00:10:39;12.07;;;8.13;;
44728;SDS011;30457;53.590;9.922;2022-09-09T00:19:38;14.70;;;9.60;;
44728;SDS011;30457;53.590;9.922;2022-09-09T00:24:16;17.38;;;9.90;;
44728;SDS011;30457;53.590;9.922;2022-09-09T00:33:35;18.83;;;11.73;;
44728;SDS011;30457;53.590;9.922;2022-09-09T00:38:03;18.77;;;11.93;;
44728;SDS011;30457;53.590;9.922;2022-09-09T00:56:57;16.15;;;10.85;;
44728;SDS011;30457;53.590;9.922;2022-09-09T01:01:25;12.48;;;9.30;;
44728;SDS011;30457;53.590;9.922;2022-09-09T01:10:51;13.30;;;8.93;;
44728;SDS011;30457;53.590;9.922;2022-09-09T01:15:24;11.88;;;8.88;;
44728;SDS011;30457;53.590;9.922;2022-09-09T01:25:05;13.57;;;9.20;;
44728;SDS011;30457;53.590;9.922;2022-09-09T01:30:01;12.75;;;8.27;;
44728;SDS011;30457;53.590;9.922;2022-09-09T01:34:38;13.48;;;9.23;;
44728;SDS011;30457;53.590;9.922;2022-09-09T01:39:05;13.32;;;9.23;;
44728;SDS011;30457;53.590;9.922;2022-09-09T01:43:32;18.27;;;10.00;;
44728;SDS011;30457;53.590;9.922;2022-09-09T01:47:59;11.77;;;8.93;;
44728;SDS011;30457;53.590;9.922;2022-09-09T01:52:40;13.30;;;8.73;;
44728;SDS011;30457;53.590;9.922;2022-09-09T01:57:27;13.05;;;9.02;;
44728;SDS011;30457;53.590;9.922;2022-09-09T02:02:26;15.73;;;9.02;;
44728;SDS011;30457;53.590;9.922;2022-09-09T02:07:27;14.25;;;9.18;;
44728;SDS011;30457;53.590;9.922;2022-09-09T02:12:21;15.52;;;8.32;;
44728;SDS011;30457;53.590;9.922;2022-09-09T02:16:55;18.55;;;10.23;;
44728;SDS011;30457;53.590;9.922;2022-09-09T02:21:38;18.33;;;8.77;;
44728;SDS011;30457;53.590;9.922;2022-09-09T02:26:06;15.13;;;9.25;;
44728;SDS011;30457;53.590;9.922;2022-09-09T02:30:35;11.50;;;8.05;;
44728;SDS011;30457;53.590;9.922;2022-09-09T02:35:11;14.80;;;9.52;;
44728;SDS011;30457;53.590;9.922;2022-09-09T02:39:40;12.52;;;8.27;;
44728;SDS011;30457;53.590;9.922;2022-09-09T02:44:18;11.43;;;7.57;;
44728;SDS011;30457;53.590;9.922;2022-09-09T02:48:52;12.20;;;8.07;;
44728;SDS011;30457;53.590;9.922;2022-09-09T02:53:34;13.43;;;9.07;;
44728;SDS011;30457;53.590;9.922;2022-09-09T02:58:17;13.43;;;8.15;;
44728;SDS011;30457;53.590;9.922;2022-09-09T03:02:53;12.05;;;7.05;;
44728;SDS011;30457;53.590;9.922;2022-09-09T03:07:21;12.27;;;7.80;;
44728;SDS011;30457;53.590;9.922;2022-09-09T03:11:49;10.48;;;7.57;;
44728;SDS011;30457;53.590;9.922;2022-09-09T03:16:16;11.43;;;7.05;;
44728;SDS011;30457;53.590;9.922;2022-09-09T03:20:46;12.93;;;8.48;;
44728;SDS011;30457;53.590;9.922;2022-09-09T03:25:16;13.00;;;7.70;;
44728;SDS011;30457;53.590;9.922;2022-09-09T03:29:43;11.73;;;6.90;;
44728;SDS011;30457;53.590;9.922;2022-09-09T03:34:13;10.88;;;6.53;;
44728;SDS011;30457;53.590;9.922;2022-09-09T03:38:39;9.85;;;6.80;;
44728;SDS011;30457;53.590;9.922;2022-09-09T03:43:05;10.10;;;6.40;;
44728;SDS011;30457;53.590;9.922;2022-09-09T03:47:32;13.52;;;7.55;;
44728;SDS011;30457;53.590;9.922;2022-09-09T03:52:03;9.82;;;6.40;;
44728;SDS011;30457;53.590;9.922;2022-09-09T03:56:30;7.75;;;5.65;;
44728;SDS011;30457;53.590;9.922;2022-09-09T04:00:57;8.23;;;5.85;;
44728;SDS011;30457;53.590;9.922;2022-09-09T04:05:28;8.65;;;6.53;;
44728;SDS011;30457;53.590;9.922;2022-09-09T04:09:54;8.82;;;5.85;;
44728;SDS011;30457;53.590;9.922;2022-09-09T04:14:20;7.60;;;5.78;;
44728;SDS011;30457;53.590;9.922;2022-09-09T04:18:46;7.90;;;5.72;;
44728;SDS011;30457;53.590;9.922;2022-09-09T04:23:14;6.93;;;5.53;;
44728;SDS011;30457;53.590;9.922;2022-09-09T04:27:41;7.50;;;5.53;;
44728;SDS011;30457;53.590;9.922;2022-09-09T04:32:08;5.95;;;5.05;;
44728;SDS011;30457;53.590;9.922;2022-09-09T04:36:33;7.90;;;5.20;;
44728;SDS011;30457;53.590;9.922;2022-09-09T04:41:02;9.35;;;5.82;;
44728;SDS011;30457;53.590;9.922;2022-09-09T04:45:28;7.55;;;5.47;;
44728;SDS011;30457;53.590;9.922;2022-09-09T04:49:54;6.97;;;5.15;;
44728;SDS011;30457;53.590;9.922;2022-09-09T04:54:20;7.93;;;5.90;;
44728;SDS011;30457;53.590;9.922;2022-09-09T04:58:46;6.55;;;4.90;;
44728;SDS011;30457;53.590;9.922;2022-09-09T05:03:13;8.25;;;5.75;;
44728;SDS011;30457;53.590;9.922;2022-09-09T05:07:39;9.07;;;5.10;;
44728;SDS011;30457;53.590;9.922;2022-09-09T05:12:04;6.90;;;5.22;;
44728;SDS011;30457;53.590;9.922;2022-09-09T05:16:34;8.05;;;5.47;;
44728;SDS011;30457;53.590;9.922;2022-09-09T05:20:59;6.68;;;5.28;;
44728;SDS011;30457;53.590;9.922;2022-09-09T05:25:26;7.18;;;4.65;;
44728;SDS011;30457;53.590;9.922;2022-09-09T05:29:53;7.88;;;4.18;;
44728;SDS011;30457;53.590;9.922;2022-09-09T05:34:19;6.30;;;4.80;;
44728;SDS011;30457;53.590;9.922;2022-09-09T05:38:46;7.45;;;4.60;;
44728;SDS011;30457;53.590;9.922;2022-09-09T05:43:13;5.63;;;4.20;;
44728;SDS011;30457;53.590;9.922;2022-09-09T05:47:39;5.93;;;4.32;;
44728;SDS011;30457;53.590;9.922;2022-09-09T05:52:09;6.72;;;4.18;;
44728;SDS011;30457;53.590;9.922;2022-09-09T05:56:34;5.85;;;4.65;;
44728;SDS011;30457;53.590;9.922;2022-09-09T06:01:04;6.78;;;3.75;;
44728;SDS011;30457;53.590;9.922;2022-09-09T06:05:36;5.43;;;3.80;;
44728;SDS011;30457;53.590;9.922;2022-09-09T06:10:05;6.88;;;3.97;;
44728;SDS011;30457;53.590;9.922;2022-09-09T06:14:31;4.75;;;3.63;;
44728;SDS011;30457;53.590;9.922;2022-09-09T06:18:58;5.25;;;3.70;;
44728;SDS011;30457;53.590;9.922;2022-09-09T06:23:27;4.78;;;3.45;;
44728;SDS011;30457;53.590;9.922;2022-09-09T06:27:53;5.70;;;3.08;;
44728;SDS011;30457;53.590;9.922;2022-09-09T06:32:19;3.20;;;2.83;;
44728;SDS011;30457;53.590;9.922;2022-09-09T06:36:44;3.90;;;2.90;;
44728;SDS011;30457;53.590;9.922;2022-09-09T06:41:12;6.20;;;2.72;;
44728;SDS011;30457;53.590;9.922;2022-09-09T06:45:44;5.82;;;2.85;;
44728;SDS011;30457;53.590;9.922;2022-09-09T06:50:18;3.33;;;2.28;;
44728;SDS011;30457;53.590;9.922;2022-09-09T06:54:47;3.13;;;2.38;;
44728;SDS011;30457;53.590;9.922;2022-09-09T06:59:14;5.10;;;2.25;;
44728;SDS011;30457;53.590;9.922;2022-09-09T07:03:41;3.80;;;2.40;;
44728;SDS011;30457;53.590;9.922;2022-09-09T07:08:10;7.00;;;2.45;;
44728;SDS011;30457;53.590;9.922;2022-09-09T07:12:36;5.47;;;1.83;;
44728;SDS011;30457;53.590;9.922;2022-09-09T07:17:03;2.75;;;1.83;;
44728;SDS011;30457;53.590;9.922;2022-09-09T07:21:33;2.72;;;2.47;;
44728;SDS011;30457;53.590;9.922;2022-09-09T07:25:59;2.10;;;1.65;;
44728;SDS011;30457;53.590;9.922;2022-09-09T07:30:26;4.22;;;1.88;;
44728;SDS011;30457;53.590;9.922;2022-09-09T07:34:52;3.25;;;1.50;;
44728;SDS011;30457;53.590;9.922;2022-09-09T07:39:19;3.05;;;1.80;;
44728;SDS011;30457;53.590;9.922;2022-09-09T07:43:50;5.85;;;1.77;;
44728;SDS011;30457;53.590;9.922;2022-09-09T07:48:19;4.65;;;2.42;;
44728;SDS011;30457;53.590;9.922;2022-09-09T07:52:44;9.63;;;3.20;;
44728;SDS011;30457;53.590;9.922;2022-09-09T07:57:10;5.20;;;2.30;;
44728;SDS011;30457;53.590;9.922;2022-09-09T08:01:38;2.58;;;1.80;;
44728;SDS011;30457;53.590;9.922;2022-09-09T08:06:07;7.43;;;2.20;;
44728;SDS011;30457;53.590;9.922;2022-09-09T08:10:33;3.75;;;1.77;;
44728;SDS011;30457;53.590;9.922;2022-09-09T08:14:59;4.03;;;2.08;;
44728;SDS011;30457;53.590;9.922;2022-09-09T08:19:29;3.70;;;2.28;;
44728;SDS011;30457;53.590;9.922;2022-09-09T08:23:56;2.78;;;2.08;;
44728;SDS011;30457;53.590;9.922;2022-09-09T08:28:24;6.05;;;2.03;;
44728;SDS011;30457;53.590;9.922;2022-09-09T08:32:50;4.13;;;1.70;;
44728;SDS011;30457;53.590;9.922;2022-09-09T08:37:16;2.85;;;1.60;;
44728;SDS011;30457;53.590;9.922;2022-09-09T08:41:51;2.45;;;1.30;;
44728;SDS011;30457;53.590;9.922;2022-09-09T08:51:38;1.55;;;1.45;;
44728;SDS011;30457;53.590;9.922;2022-09-09T08:56:08;7.43;;;1.98;;
44728;SDS011;30457;53.590;9.922;2022-09-09T09:05:47;1.20;;;1.10;;
44728;SDS011;30457;53.590;9.922;2022-09-09T09:10:37;1.40;;;1.30;;
44728;SDS011;30457;53.590;9.922;2022-09-09T09:15:18;3.90;;;1.10;;
44728;SDS011;30457;53.590;9.922;2022-09-09T09:19:49;3.30;;;1.45;;
44728;SDS011;30457;53.590;9.922;2022-09-09T09:24:34;10.23;;;1.20;;
44728;SDS011;30457;53.590;9.922;2022-09-09T09:29:12;1.77;;;1.20;;
44728;SDS011;30457;53.590;9.922;2022-09-09T09:38:16;3.45;;;1.00;;
44728;SDS011;30457;53.590;9.922;2022-09-09T09:42:48;2.05;;;0.90;;
44728;SDS011;30457;53.590;9.922;2022-09-09T09:47:28;0.85;;;0.80;;
44728;SDS011;30457;53.590;9.922;2022-09-09T09:52:02;4.22;;;0.55;;
44728;SDS011;30457;53.590;9.922;2022-09-09T09:56:29;1.27;;;0.60;;
44728;SDS011;30457;53.590;9.922;2022-09-09T10:00:56;1.90;;;0.50;;
44728;SDS011;30457;53.590;9.922;2022-09-09T10:05:26;2.40;;;0.70;;
44728;SDS011;30457;53.590;9.922;2022-09-09T10:09:59;1.42;;;0.80;;
44728;SDS011;30457;53.590;9.922;2022-09-09T10:19:13;2.90;;;0.90;;
44728;SDS011;30457;53.590;9.922;2022-09-09T10:24:00;1.80;;;0.75;;
44728;SDS011;30457;53.590;9.922;2022-09-09T10:29:00;3.33;;;1.10;;
44728;SDS011;30457;53.590;9.922;2022-09-09T10:33:50;2.35;;;1.05;;
44728;SDS011;30457;53.590;9.922;2022-09-09T10:38:34;3.33;;;0.88;;
44728;SDS011;30457;53.590;9.922;2022-09-09T10:43:13;2.05;;;0.60;;
44728;SDS011;30457;53.590;9.922;2022-09-09T10:57:44;1.33;;;0.95;;
44728;SDS011;30457;53.590;9.922;2022-09-09T11:02:18;3.35;;;1.05;;
44728;SDS011;30457;53.590;9.922;2022-09-09T11:06:55;3.33;;;1.10;;
44728;SDS011;30457;53.590;9.922;2022-09-09T11:11:29;2.55;;;1.00;;
44728;SDS011;30457;53.590;9.922;2022-09-09T11:20:44;2.38;;;1.00;;
44728;SDS011;30457;53.590;9.922;2022-09-09T11:25:25;1.85;;;0.82;;
44728;SDS011;30457;53.590;9.922;2022-09-09T11:34:50;3.05;;;0.80;;
44728;SDS011;30457;53.590;9.922;2022-09-09T11:44:17;1.27;;;0.70;;
44728;SDS011;30457;53.590;9.922;2022-09-09T11:49:00;1.02;;;0.80;;
44728;SDS011;30457;53.590;9.922;2022-09-09T11:53:28;3.45;;;0.90;;
44728;SDS011;30457;53.590;9.922;2022-09-09T11:57:58;2.50;;;0.80;;
44728;SDS011;30457;53.590;9.922;2022-09-09T12:02:29;2.85;;;0.93;;
44728;SDS011;30457;53.590;9.922;2022-09-09T12:11:29;1.88;;;0.70;;
44728;SDS011;30457;53.590;9.922;2022-09-09T12:15:56;3.72;;;0.80;;
44728;SDS011;30457;53.590;9.922;2022-09-09T12:20:26;1.83;;;0.90;;
44728;SDS011;30457;53.590;9.922;2022-09-09T12:25:01;2.08;;;1.20;;
44728;SDS011;30457;53.590;9.922;2022-09-09T12:34:32;2.53;;;1.17;;
44728;SDS011;30457;53.590;9.922;2022-09-09T12:44:06;2.30;;;1.25;;
44728;SDS011;30457;53.590;9.922;2022-09-09T12:48:37;2.25;;;0.93;;
44728;SDS011;30457;53.590;9.922;2022-09-09T12:53:08;2.63;;;1.08;;
44728;SDS011;30457;53.590;9.922;2022-09-09T12:57:40;2.35;;;1.02;;
44728;SDS011;30457;53.590;9.922;2022-09-09T13:02:26;10.57;;;1.50;;
44728;SDS011;30457;53.590;9.922;2022-09-09T13:06:52;2.00;;;1.30;;
44728;SDS011;30457;53.590;9.922;2022-09-09T13:11:37;3.85;;;1.38;;
44728;SDS011;30457;53.590;9.922;2022-09-09T13:16:19;1.40;;;1.08;;
44728;SDS011;30457;53.590;9.922;2022-09-09T13:20:56;1.75;;;1.25;;
44728;SDS011;30457;53.590;9.922;2022-09-09T13:25:29;2.95;;;1.15;;
44728;SDS011;30457;53.590;9.922;2022-09-09T13:29:55;2.05;;;1.33;;
44728;SDS011;30457;53.590;9.922;2022-09-09T13:34:31;4.53;;;1.27;;
44728;SDS011;30457;53.590;9.922;2022-09-09T13:38:59;1.40;;;0.85;;
44728;SDS011;30457;53.590;9.922;2022-09-09T13:43:26;3.40;;;1.13;;
44728;SDS011;30457;53.590;9.922;2022-09-09T13:47:53;2.88;;;1.20;;
44728;SDS011;30457;53.590;9.922;2022-09-09T13:52:33;3.55;;;1.40;;
44728;SDS011;30457;53.590;9.922;2022-09-09T13:56:58;4.80;;;1.25;;
44728;SDS011;30457;53.590;9.922;2022-09-09T14:01:24;2.40;;;1.10;;
44728;SDS011;30457;53.590;9.922;2022-09-09T14:05:49;3.42;;;1.80;;
44728;SDS011;30457;53.590;9.922;2022-09-09T14:10:16;3.30;;;1.42;;
44728;SDS011;30457;53.590;9.922;2022-09-09T14:14:41;2.70;;;1.67;;
44728;SDS011;30457;53.590;9.922;2022-09-09T14:19:08;2.10;;;1.35;;
44728;SDS011;30457;53.590;9.922;2022-09-09T14:23:34;4.22;;;1.50;;
44728;SDS011;30457;53.590;9.922;2022-09-09T14:27:59;2.90;;;1.50;;
44728;SDS011;30457;53.590;9.922;2022-09-09T14:32:26;2.00;;;1.70;;
44728;SDS011;30457;53.590;9.922;2022-09-09T14:36:52;12.65;;;5.68;;
44728;SDS011;30457;53.590;9.922;2022-09-09T14:41:18;1.55;;;1.15;;
44728;SDS011;30457;53.590;9.922;2022-09-09T14:45:47;2.58;;;1.38;;
44728;SDS011;30457;53.590;9.922;2022-09-09T14:50:13;1.30;;;1.10;;
44728;SDS011;30457;53.590;9.922;2022-09-09T14:54:38;3.13;;;1.10;;
44728;SDS011;30457;53.590;9.922;2022-09-09T14:59:04;3.13;;;1.02;;
44728;SDS011;30457;53.590;9.922;2022-09-09T15:03:30;2.53;;;0.90;;
44728;SDS011;30457;53.590;9.922;2022-09-09T15:07:55;2.03;;;1.30;;
44728;SDS011;30457;53.590;9.922;2022-09-09T15:12:22;3.47;;;1.27;;
44728;SDS011;30457;53.590;9.922;2022-09-09T15:16:49;2.92;;;1.30;;
44728;SDS011;30457;53.590;9.922;2022-09-09T15:21:15;1.92;;;0.98;;
44728;SDS011;30457;53.590;9.922;2022-09-09T15:25:51;1.52;;;1.42;;
44728;SDS011;30457;53.590;9.922;2022-09-09T15:30:18;2.80;;;1.20;;
44728;SDS011;30457;53.590;9.922;2022-09-09T15:34:43;2.80;;;1.30;;
44728;SDS011;30457;53.590;9.922;2022-09-09T15:39:10;3.35;;;1.30;;
44728;SDS011;30457;53.590;9.922;2022-09-09T15:43:37;2.30;;;1.77;;
44728;SDS011;30457;53.590;9.922;2022-09-09T15:48:04;2.10;;;1.27;;
44728;SDS011;30457;53.590;9.922;2022-09-09T15:52:30;4.05;;;1.67;;
44728;SDS011;30457;53.590;9.922;2022-09-09T15:56:59;3.88;;;1.60;;
44728;SDS011;30457;53.590;9.922;2022-09-09T16:01:28;3.40;;;1.80;;
44728;SDS011;30457;53.590;9.922;2022-09-09T16:05:55;1.73;;;1.35;;
44728;SDS011;30457;53.590;9.922;2022-09-09T16:10:21;4.25;;;1.48;;
44728;SDS011;30457;53.590;9.922;2022-09-09T16:14:46;2.83;;;1.70;;
44728;SDS011;30457;53.590;9.922;2022-09-09T16:19:12;2.30;;;1.40;;
44728;SDS011;30457;53.590;9.922;2022-09-09T16:23:38;1.63;;;1.02;;
44728;SDS011;30457;53.590;9.922;2022-09-09T16:28:04;1.52;;;1.10;;
44728;SDS011;30457;53.590;9.922;2022-09-09T16:32:29;1.10;;;0.95;;
44728;SDS011;30457;53.590;9.922;2022-09-09T16:41:32;2.70;;;0.98;;
44728;SDS011;30457;53.590;9.922;2022-09-09T16:45:58;1.85;;;1.55;;
44728;SDS011;30457;53.590;9.922;2022-09-09T16:50:25;1.52;;;1.02;;
44728;SDS011;30457;53.590;9.922;2022-09-09T16:54:51;4.13;;;1.42;;
44728;SDS011;30457;53.590;9.922;2022-09-09T16:59:18;0.93;;;0.90;;
44728;SDS011;30457;53.590;9.922;2022-09-09T17:03:44;1.42;;;0.80;;
44728;SDS011;30457;53.590;9.922;2022-09-09T17:08:10;1.40;;;0.90;;
44728;SDS011;30457;53.590;9.922;2022-09-09T17:12:35;1.60;;;1.15;;
44728;SDS011;30457;53.590;9.922;2022-09-09T17:17:01;1.25;;;1.00;;
44728;SDS011;30457;53.590;9.922;2022-09-09T17:21:27;3.08;;;1.05;;
44728;SDS011;30457;53.590;9.922;2022-09-09T17:25:57;2.38;;;1.23;;
44728;SDS011;30457;53.590;9.922;2022-09-09T17:30:23;1.83;;;0.85;;
44728;SDS011;30457;53.590;9.922;2022-09-09T17:34:49;3.72;;;1.20;;
44728;SDS011;30457;53.590;9.922;2022-09-09T17:39:15;1.50;;;0.82;;
44728;SDS011;30457;53.590;9.922;2022-09-09T17:43:41;2.08;;;0.90;;
44728;SDS011;30457;53.590;9.922;2022-09-09T17:48:07;3.15;;;1.25;;
44728;SDS011;30457;53.590;9.922;2022-09-09T17:52:32;2.95;;;1.27;;
44728;SDS011;30457;53.590;9.922;2022-09-09T17:56:59;1.15;;;1.00;;
44728;SDS011;30457;53.590;9.922;2022-09-09T18:01:26;1.20;;;0.80;;
44728;SDS011;30457;53.590;9.922;2022-09-09T18:05:59;2.15;;;1.20;;
44728;SDS011;30457;53.590;9.922;2022-09-09T18:10:26;1.85;;;1.30;;
44728;SDS011;30457;53.590;9.922;2022-09-09T18:14:52;2.25;;;1.58;;
44728;SDS011;30457;53.590;9.922;2022-09-09T18:19:19;3.17;;;1.33;;
44728;SDS011;30457;53.590;9.922;2022-09-09T18:23:46;3.63;;;1.65;;
44728;SDS011;30457;53.590;9.922;2022-09-09T18:28:16;3.33;;;1.70;;
44728;SDS011;30457;53.590;9.922;2022-09-09T18:32:42;6.82;;;4.05;;
44728;SDS011;30457;53.590;9.922;2022-09-09T18:37:07;7.28;;;4.70;;
44728;SDS011;30457;53.590;9.922;2022-09-09T18:41:35;3.40;;;2.75;;
44728;SDS011;30457;53.590;9.922;2022-09-09T18:46:03;3.33;;;2.25;;
44728;SDS011;30457;53.590;9.922;2022-09-09T18:50:29;4.70;;;2.20;;
44728;SDS011;30457;53.590;9.922;2022-09-09T18:54:54;3.90;;;2.78;;
44728;SDS011;30457;53.590;9.922;2022-09-09T18:59:21;3.47;;;2.40;;
44728;SDS011;30457;53.590;9.922;2022-09-09T19:03:47;3.13;;;2.10;;
44728;SDS011;30457;53.590;9.922;2022-09-09T19:08:13;2.63;;;2.30;;
44728;SDS011;30457;53.590;9.922;2022-09-09T19:12:39;5.25;;;2.85;;
44728;SDS011;30457;53.590;9.922;2022-09-09T19:17:05;5.47;;;2.85;;
44728;SDS011;30457;53.590;9.922;2022-09-09T19:21:35;4.60;;;2.53;;
44728;SDS011;30457;53.590;9.922;2022-09-09T19:26:02;3.90;;;2.58;;
44728;SDS011;30457;53.590;9.922;2022-09-09T19:30:33;5.57;;;2.72;;
44728;SDS011;30457;53.590;9.922;2022-09-09T19:34:59;7.57;;;3.05;;
44728;SDS011;30457;53.590;9.922;2022-09-09T19:39:25;4.07;;;2.85;;
44728;SDS011;30457;53.590;9.922;2022-09-09T19:43:52;4.22;;;2.65;;
44728;SDS011;30457;53.590;9.922;2022-09-09T19:48:22;3.35;;;2.60;;
44728;SDS011;30457;53.590;9.922;2022-09-09T19:52:50;3.30;;;2.50;;
44728;SDS011;30457;53.590;9.922;2022-09-09T19:57:16;3.70;;;2.70;;
44728;SDS011;30457;53.590;9.922;2022-09-09T20:01:43;3.15;;;2.70;;
44728;SDS011;30457;53.590;9.922;2022-09-09T20:06:11;4.70;;;2.97;;
44728;SDS011;30457;53.590;9.922;2022-09-09T20:10:38;7.00;;;3.28;;
44728;SDS011;30457;53.590;9.922;2022-09-09T20:15:03;4.70;;;3.00;;
44728;SDS011;30457;53.590;9.922;2022-09-09T20:19:29;6.53;;;2.90;;
44728;SDS011;30457;53.590;9.922;2022-09-09T20:23:55;4.57;;;3.00;;
44728;SDS011;30457;53.590;9.922;2022-09-09T20:28:20;3.28;;;2.67;;
44728;SDS011;30457;53.590;9.922;2022-09-09T20:32:46;5.07;;;2.95;;
44728;SDS011;30457;53.590;9.922;2022-09-09T20:37:12;3.55;;;2.60;;
44728;SDS011;30457;53.590;9.922;2022-09-09T20:41:38;2.78;;;2.55;;
44728;SDS011;30457;53.590;9.922;2022-09-09T20:46:04;7.03;;;3.63;;
44728;SDS011;30457;53.590;9.922;2022-09-09T20:50:29;4.78;;;2.42;;
44728;SDS011;30457;53.590;9.922;2022-09-09T20:54:58;3.30;;;2.55;;
44728;SDS011;30457;53.590;9.922;2022-09-09T20:59:25;6.03;;;3.03;;
44728;SDS011;30457;53.590;9.922;2022-09-09T21:03:51;4.13;;;3.00;;
44728;SDS011;30457;53.590;9.922;2022-09-09T21:08:17;3.65;;;2.78;;
44728;SDS011;30457;53.590;9.922;2022-09-09T21:12:43;3.05;;;2.75;;
44728;SDS011;30457;53.590;9.922;2022-09-09T21:17:09;3.08;;;2.75;;
44728;SDS011;30457;53.590;9.922;2022-09-09T21:21:34;4.15;;;2.70;;
44728;SDS011;30457;53.590;9.922;2022-09-09T21:26:01;4.45;;;3.13;;
44728;SDS011;30457;53.590;9.922;2022-09-09T21:30:27;3.17;;;2.85;;
44728;SDS011;30457;53.590;9.922;2022-09-09T21:34:53;3.22;;;2.47;;
44728;SDS011;30457;53.590;9.922;2022-09-09T21:39:20;3.35;;;2.40;;
44728;SDS011;30457;53.590;9.922;2022-09-09T21:43:49;2.78;;;2.55;;
44728;SDS011;30457;53.590;9.922;2022-09-09T21:48:16;3.83;;;2.38;;
44728;SDS011;30457;53.590;9.922;2022-09-09T21:52:45;3.20;;;2.25;;
44728;SDS011;30457;53.590;9.922;2022-09-09T21:57:11;2.90;;;2.45;;
44728;SDS011;30457;53.590;9.922;2022-09-09T22:01:38;3.40;;;2.72;;
44728;SDS011;30457;53.590;9.922;2022-09-09T22:06:05;2.80;;;2.20;;
44728;SDS011;30457;53.590;9.922;2022-09-09T22:10:34;5.05;;;2.20;;
44728;SDS011;30457;53.590;9.922;2022-09-09T22:15:01;3.53;;;2.17;;
44728;SDS011;30457;53.590;9.922;2022-09-09T22:19:28;4.72;;;2.03;;
44728;SDS011;30457;53.590;9.922;2022-09-09T22:23:55;3.08;;;1.70;;
44728;SDS011;30457;53.590;9.922;2022-09-09T22:28:22;3.20;;;1.90;;
44728;SDS011;30457;53.590;9.922;2022-09-09T22:32:47;2.40;;;1.75;;
44728;SDS011;30457;53.590;9.922;2022-09-09T22:37:14;4.65;;;1.38;;
44728;SDS011;30457;53.590;9.922;2022-09-09T22:41:39;2.00;;;1.80;;
44728;SDS011;30457;53.590;9.922;2022-09-09T22:46:05;1.77;;;1.52;;
44728;SDS011;30457;53.590;9.922;2022-09-09T22:50:35;2.50;;;1.70;;
44728;SDS011;30457;53.590;9.922;2022-09-09T22:55:01;1.73;;;1.60;;
44728;SDS011;30457;53.590;9.922;2022-09-09T22:59:26;1.88;;;1.58;;
44728;SDS011;30457;53.590;9.922;2022-09-09T23:03:54;2.20;;;1.80;;
44728;SDS011;30457;53.590;9.922;2022-09-09T23:08:24;3.80;;;1.98;;
44728;SDS011;30457;53.590;9.922;2022-09-09T23:12:57;2.30;;;1.85;;
44728;SDS011;30457;53.590;9.922;2022-09-09T23:17:23;3.70;;;2.08;;
44728;SDS011;30457;53.590;9.922;2022-09-09T23:21:49;2.00;;;1.70;;
44728;SDS011;30457;53.590;9.922;2022-09-09T23:26:15;3.30;;;1.77;;
44728;SDS011;30457;53.590;9.922;2022-09-09T23:30:44;2.78;;;1.40;;
44728;SDS011;30457;53.590;9.922;2022-09-09T23:35:11;2.10;;;1.90;;
44728;SDS011;30457;53.590;9.922;2022-09-09T23:39:37;2.13;;;1.92;;
44728;SDS011;30457;53.590;9.922;2022-09-09T23:44:04;3.22;;;1.80;;
44728;SDS011;30457;53.590;9.922;2022-09-09T23:48:30;3.38;;;1.92;;
44728;SDS011;30457;53.590;9.922;2022-09-09T23:52:56;3.90;;;1.83;;
44728;SDS011;30457;53.590;9.922;2022-09-09T23:57:23;3.75;;;1.80;;
